createdAt,value
2023-06-17T00:00:11.898Z,3.50
2023-06-17T00:00:43.758Z,3.38
2023-06-17T00:01:16.633Z,4.20
2023-06-17T00:01:48.445Z,3.40
2023-06-17T00:02:20.192Z,3.40
2023-06-17T00:02:52.525Z,3.63
2023-06-17T00:03:24.433Z,3.58
2023-06-17T00:03:56.389Z,3.45
2023-06-17T00:04:28.318Z,3.85
2023-06-17T00:05:00.122Z,4.35
2023-06-17T00:05:31.995Z,3.58
2023-06-17T00:06:03.799Z,3.80
2023-06-17T00:06:35.807Z,3.58
2023-06-17T00:07:07.687Z,4.07
2023-06-17T00:07:40.764Z,3.80
2023-06-17T00:08:12.536Z,3.47
2023-06-17T00:08:44.410Z,2.88
2023-06-17T00:09:16.262Z,3.33
2023-06-17T00:09:48.215Z,3.30
2023-06-17T00:10:20.589Z,3.45
2023-06-17T00:10:52.565Z,3.67
2023-06-17T00:11:24.356Z,3.67
2023-06-17T00:11:57.931Z,3.53
2023-06-17T00:12:32.938Z,3.88
2023-06-17T00:13:08.544Z,3.25
2023-06-17T00:13:40.359Z,3.00
2023-06-17T00:14:12.171Z,3.75
2023-06-17T00:14:44.652Z,3.45
2023-06-17T00:15:17.885Z,3.03
2023-06-17T00:15:57.778Z,3.92
2023-06-17T00:16:29.639Z,3.85
2023-06-17T00:17:01.954Z,3.72
2023-06-17T00:17:33.863Z,4.00
2023-06-17T00:18:06.584Z,3.22
2023-06-17T00:18:40.225Z,3.35
2023-06-17T00:19:16.850Z,3.38
2023-06-17T00:19:49.363Z,3.90
2023-06-17T00:20:21.452Z,4.32
2023-06-17T00:20:54.341Z,3.65
2023-06-17T00:21:26.141Z,3.13
2023-06-17T00:21:57.985Z,4.03
2023-06-17T00:22:30.984Z,3.72
2023-06-17T00:23:04.749Z,3.40
2023-06-17T00:23:37.417Z,3.78
2023-06-17T00:24:09.244Z,3.78
2023-06-17T00:24:41.137Z,4.15
2023-06-17T00:25:13.390Z,3.83
2023-06-17T00:25:45.217Z,3.60
2023-06-17T00:26:17.044Z,3.70
2023-06-17T00:26:49.550Z,3.83
2023-06-17T00:27:21.283Z,3.25
2023-06-17T00:27:53.060Z,3.90
2023-06-17T00:28:24.827Z,3.95
2023-06-17T00:28:57.630Z,3.50
2023-06-17T00:29:29.480Z,3.90
2023-06-17T00:30:01.537Z,4.22
2023-06-17T00:30:37.615Z,3.55
2023-06-17T00:31:09.342Z,3.65
2023-06-17T00:31:42.618Z,3.60
2023-06-17T00:32:15.198Z,3.90
2023-06-17T00:32:47.742Z,3.70
2023-06-17T00:33:19.716Z,3.35
2023-06-17T00:33:51.520Z,3.97
2023-06-17T00:34:23.283Z,3.85
2023-06-17T00:34:56.469Z,3.88
2023-06-17T00:35:28.247Z,3.88
2023-06-17T00:36:00.082Z,4.28
2023-06-17T00:36:32.014Z,4.10
2023-06-17T00:37:04.248Z,3.90
2023-06-17T00:37:36.238Z,3.60
2023-06-17T00:38:09.682Z,3.78
2023-06-17T00:38:41.472Z,3.88
2023-06-17T00:39:14.620Z,3.65
2023-06-17T00:39:46.568Z,4.40
2023-06-17T00:40:19.502Z,3.65
2023-06-17T00:40:51.485Z,3.92
2023-06-17T00:41:23.918Z,3.33
2023-06-17T00:41:58.187Z,3.70
2023-06-17T00:42:30.908Z,3.50
2023-06-17T00:43:02.916Z,3.63
2023-06-17T00:43:34.745Z,3.78
2023-06-17T00:44:06.656Z,4.03
2023-06-17T00:44:41.047Z,5.72
2023-06-17T00:45:12.836Z,3.75
2023-06-17T00:45:44.670Z,3.30
2023-06-17T00:46:35.370Z,4.07
2023-06-17T00:47:08.560Z,4.05
2023-06-17T00:47:41.562Z,3.85
2023-06-17T00:48:14.639Z,3.95
2023-06-17T00:48:46.545Z,3.85
2023-06-17T00:49:18.622Z,4.30
2023-06-17T00:49:52.249Z,3.80
2023-06-17T00:50:25.888Z,3.40
2023-06-17T00:51:03.019Z,3.97
2023-06-17T00:51:35.099Z,4.45
2023-06-17T00:52:31.048Z,3.55
2023-06-17T00:53:02.464Z,3.58
2023-06-17T00:53:34.735Z,3.75
2023-06-17T00:54:08.518Z,3.47
2023-06-17T00:54:42.255Z,4.13
2023-06-17T00:55:14.332Z,3.97
2023-06-17T00:55:46.171Z,3.70
2023-06-17T00:56:18.897Z,4.22
2023-06-17T00:56:54.208Z,3.47
2023-06-17T00:57:26.215Z,4.10
2023-06-17T00:57:58.506Z,3.92
2023-06-17T00:58:30.536Z,4.30
2023-06-17T00:59:03.967Z,3.65
2023-06-17T00:59:38.256Z,4.30
2023-06-17T01:00:12.316Z,3.80
2023-06-17T01:00:44.702Z,3.50
2023-06-17T01:01:18.928Z,3.88
2023-06-17T01:01:51.810Z,3.70
2023-06-17T01:02:26.721Z,4.88
2023-06-17T01:02:59.812Z,4.38
2023-06-17T01:03:31.906Z,4.28
2023-06-17T01:04:06.453Z,4.50
2023-06-17T01:04:43.574Z,4.10
2023-06-17T01:05:18.877Z,3.83
2023-06-17T01:05:54.220Z,4.07
2023-06-17T01:06:34.745Z,3.80
2023-06-17T01:07:25.280Z,3.80
2023-06-17T01:08:15.277Z,4.53
2023-06-17T01:08:58.742Z,4.05
2023-06-17T01:09:36.124Z,3.85
2023-06-17T01:10:18.300Z,4.53
2023-06-17T01:11:04.237Z,3.85
2023-06-17T01:11:37.849Z,3.60
2023-06-17T01:12:13.736Z,3.95
2023-06-17T01:12:47.620Z,4.07
2023-06-17T01:13:20.194Z,3.05
2023-06-17T01:13:56.162Z,3.92
2023-06-17T01:14:29.133Z,3.95
2023-06-17T01:15:02.350Z,3.55
2023-06-17T01:15:36.614Z,4.10
2023-06-17T01:16:09.477Z,4.47
2023-06-17T01:16:43.125Z,4.35
2023-06-17T01:17:19.100Z,4.20
2023-06-17T01:17:55.637Z,4.45
2023-06-17T01:18:29.061Z,4.40
2023-06-17T01:19:01.068Z,3.97
2023-06-17T01:19:36.489Z,4.32
2023-06-17T01:20:10.045Z,4.10
2023-06-17T01:20:43.551Z,3.95
2023-06-17T01:21:21.855Z,4.18
2023-06-17T01:21:54.600Z,4.20
2023-06-17T01:22:29.514Z,3.88
2023-06-17T01:23:02.753Z,4.28
2023-06-17T01:23:36.693Z,3.72
2023-06-17T01:24:10.217Z,4.30
2023-06-17T01:24:43.264Z,4.05
2023-06-17T01:25:15.669Z,4.38
2023-06-17T01:25:47.816Z,4.05
2023-06-17T01:26:20.881Z,3.72
2023-06-17T01:26:57.594Z,3.90
2023-06-17T01:27:30.511Z,4.07
2023-06-17T01:28:17.881Z,3.92
2023-06-17T01:28:54.408Z,4.47
2023-06-17T01:29:30.536Z,4.10
2023-06-17T01:30:04.003Z,3.70
2023-06-17T01:30:36.845Z,4.28
2023-06-17T01:31:14.035Z,4.13
2023-06-17T01:31:50.258Z,3.70
2023-06-17T01:32:23.326Z,4.28
2023-06-17T01:32:58.117Z,3.97
2023-06-17T01:33:31.914Z,4.53
2023-06-17T01:34:06.984Z,3.90
2023-06-17T01:34:48.424Z,3.92
2023-06-17T01:35:20.414Z,4.15
2023-06-17T01:35:58.863Z,4.03
2023-06-17T01:36:34.511Z,3.70
2023-06-17T01:37:12.665Z,4.05
2023-06-17T01:37:52.620Z,4.25
2023-06-17T01:38:31.612Z,4.20
2023-06-17T01:39:05.127Z,4.18
2023-06-17T01:39:43.796Z,3.92
2023-06-17T01:40:20.226Z,4.03
2023-06-17T01:40:59.717Z,3.97
2023-06-17T01:41:37.520Z,3.92
2023-06-17T01:42:26.336Z,4.10
2023-06-17T01:43:02.764Z,4.10
2023-06-17T01:43:37.584Z,5.35
2023-06-17T01:44:09.752Z,3.80
2023-06-17T01:44:43.040Z,4.18
2023-06-17T01:45:16.059Z,4.15
2023-06-17T01:45:48.678Z,4.32
2023-06-17T01:46:21.170Z,4.18
2023-06-17T01:46:53.155Z,4.35
2023-06-17T01:47:25.244Z,3.95
2023-06-17T01:47:57.160Z,3.63
2023-06-17T01:48:29.256Z,4.38
2023-06-17T01:49:01.471Z,3.40
2023-06-17T01:49:33.375Z,4.05
2023-06-17T01:50:07.071Z,4.43
2023-06-17T01:50:39.933Z,4.10
2023-06-17T01:51:11.746Z,4.45
2023-06-17T01:51:43.589Z,3.63
2023-06-17T01:52:15.386Z,4.35
2023-06-17T01:52:47.735Z,3.83
2023-06-17T01:53:19.919Z,3.90
2023-06-17T01:53:52.780Z,3.60
2023-06-17T01:54:24.914Z,3.70
2023-06-17T01:54:57.954Z,4.22
2023-06-17T01:55:29.961Z,3.80
2023-06-17T01:56:01.972Z,4.43
2023-06-17T01:56:33.946Z,3.88
2023-06-17T01:57:07.087Z,4.05
2023-06-17T01:57:39.543Z,4.10
2023-06-17T01:58:11.830Z,4.00
2023-06-17T01:58:43.779Z,3.55
2023-06-17T01:59:17.144Z,4.07
2023-06-17T01:59:49.045Z,4.50
2023-06-17T02:00:23.172Z,4.47
2023-06-17T02:00:58.124Z,4.60
2023-06-17T02:01:29.926Z,3.85
2023-06-17T02:02:01.821Z,4.30
2023-06-17T02:02:33.818Z,4.78
2023-06-17T02:03:06.996Z,3.85
2023-06-17T02:03:40.352Z,4.65
2023-06-17T02:04:12.234Z,4.30
2023-06-17T02:04:45.839Z,4.07
2023-06-17T02:05:17.723Z,4.00
2023-06-17T02:05:50.973Z,3.92
2023-06-17T02:06:22.795Z,3.72
2023-06-17T02:06:55.663Z,4.43
2023-06-17T02:07:28.468Z,4.50
2023-06-17T02:08:01.566Z,4.10
2023-06-17T02:08:38.323Z,3.90
2023-06-17T02:09:10.105Z,4.28
2023-06-17T02:09:41.867Z,4.75
2023-06-17T02:10:13.685Z,4.18
2023-06-17T02:10:45.962Z,4.13
2023-06-17T02:11:18.357Z,4.00
2023-06-17T02:11:51.595Z,4.22
2023-06-17T02:12:25.669Z,4.20
2023-06-17T02:12:57.644Z,3.80
2023-06-17T02:13:29.547Z,4.20
2023-06-17T02:14:02.769Z,4.28
2023-06-17T02:14:34.703Z,4.25
2023-06-17T02:15:07.409Z,4.30
2023-06-17T02:15:43.460Z,3.70
2023-06-17T02:16:17.592Z,3.70
2023-06-17T02:16:50.163Z,4.05
2023-06-17T02:17:24.824Z,3.95
2023-06-17T02:17:57.613Z,4.18
2023-06-17T02:18:33.420Z,3.80
2023-06-17T02:19:05.933Z,4.30
2023-06-17T02:19:39.057Z,4.43
2023-06-17T02:20:11.883Z,4.18
2023-06-17T02:20:44.354Z,4.10
2023-06-17T02:21:16.759Z,4.00
2023-06-17T02:21:48.602Z,3.92
2023-06-17T02:22:20.423Z,4.60
2023-06-17T02:22:52.233Z,4.20
2023-06-17T02:23:24.100Z,4.28
2023-06-17T02:23:58.169Z,4.38
2023-06-17T02:24:30.224Z,4.80
2023-06-17T02:25:03.258Z,4.07
2023-06-17T02:25:35.309Z,4.13
2023-06-17T02:26:07.040Z,4.40
2023-06-17T02:26:40.725Z,4.47
2023-06-17T02:27:13.272Z,4.55
2023-06-17T02:27:45.162Z,4.53
2023-06-17T02:28:16.939Z,3.90
2023-06-17T02:28:49.244Z,3.80
2023-06-17T02:29:21.175Z,4.00
2023-06-17T02:29:53.629Z,3.80
2023-06-17T02:30:25.777Z,4.47
2023-06-17T02:30:58.179Z,4.15
2023-06-17T02:31:30.163Z,4.30
2023-06-17T02:32:02.149Z,3.90
2023-06-17T02:32:34.132Z,4.43
2023-06-17T02:33:06.706Z,4.68
2023-06-17T02:33:38.693Z,4.85
2023-06-17T02:34:10.551Z,4.82
2023-06-17T02:34:43.642Z,4.50
2023-06-17T02:35:16.364Z,4.07
2023-06-17T02:35:48.117Z,4.40
2023-06-17T02:36:20.154Z,4.35
2023-06-17T02:36:52.974Z,4.90
2023-06-17T02:37:26.035Z,4.57
2023-06-17T02:37:58.436Z,4.32
2023-06-17T02:38:30.197Z,3.90
2023-06-17T02:39:02.079Z,4.15
2023-06-17T02:39:34.370Z,4.25
2023-06-17T02:40:09.797Z,4.30
2023-06-17T02:40:41.615Z,3.72
2023-06-17T02:41:14.908Z,4.28
2023-06-17T02:41:46.752Z,4.13
2023-06-17T02:42:18.620Z,4.03
2023-06-17T02:42:50.452Z,4.28
2023-06-17T02:43:22.443Z,4.13
2023-06-17T02:43:54.228Z,4.00
2023-06-17T02:44:26.090Z,4.25
2023-06-17T02:44:57.949Z,4.18
2023-06-17T02:45:31.583Z,4.20
2023-06-17T02:46:03.420Z,4.18
2023-06-17T02:46:37.040Z,4.57
2023-06-17T02:47:09.362Z,4.15
2023-06-17T02:47:42.115Z,4.18
2023-06-17T02:48:15.242Z,4.50
2023-06-17T02:48:47.381Z,4.22
2023-06-17T02:49:19.274Z,4.43
2023-06-17T02:49:51.096Z,4.63
2023-06-17T02:50:24.403Z,4.18
2023-06-17T02:50:56.399Z,3.80
2023-06-17T02:51:28.976Z,3.72
2023-06-17T02:52:01.032Z,4.25
2023-06-17T02:52:35.287Z,4.28
2023-06-17T02:53:08.799Z,4.35
2023-06-17T02:53:41.464Z,4.30
2023-06-17T02:54:13.461Z,4.35
2023-06-17T02:54:45.330Z,3.70
2023-06-17T02:55:26.377Z,4.35
2023-06-17T02:55:58.837Z,4.20
2023-06-17T02:56:31.631Z,4.03
2023-06-17T02:57:03.603Z,3.75
2023-06-17T02:57:36.699Z,4.43
2023-06-17T02:58:08.633Z,3.47
2023-06-17T02:58:46.833Z,4.00
2023-06-17T02:59:19.215Z,4.20
2023-06-17T02:59:54.614Z,3.53
2023-06-17T03:00:26.837Z,4.20
2023-06-17T03:00:59.142Z,3.90
2023-06-17T03:01:33.885Z,4.10
2023-06-17T03:02:06.596Z,4.90
2023-06-17T03:02:38.667Z,5.00
2023-06-17T03:03:10.979Z,4.05
2023-06-17T03:03:42.984Z,4.03
2023-06-17T03:04:15.608Z,4.60
2023-06-17T03:04:47.679Z,4.82
2023-06-17T03:05:19.721Z,4.13
2023-06-17T03:05:52.101Z,4.40
2023-06-17T03:06:24.274Z,4.10
2023-06-17T03:06:57.839Z,4.40
2023-06-17T03:07:31.356Z,4.35
2023-06-17T03:08:03.587Z,4.00
2023-06-17T03:08:40.806Z,4.60
2023-06-17T03:09:12.973Z,4.05
2023-06-17T03:09:45.902Z,4.55
2023-06-17T03:10:19.482Z,4.25
2023-06-17T03:10:57.471Z,4.70
2023-06-17T03:11:30.215Z,4.50
2023-06-17T03:12:07.277Z,4.30
2023-06-17T03:12:40.044Z,5.15
2023-06-17T03:13:12.178Z,4.20
2023-06-17T03:13:47.540Z,4.00
2023-06-17T03:14:33.069Z,5.43
2023-06-17T03:15:07.446Z,3.67
2023-06-17T03:15:41.212Z,4.35
2023-06-17T03:16:14.207Z,4.38
2023-06-17T03:16:46.611Z,4.28
2023-06-17T03:17:18.749Z,4.57
2023-06-17T03:17:51.389Z,3.97
2023-06-17T03:18:23.373Z,4.18
2023-06-17T03:18:56.081Z,4.45
2023-06-17T03:19:28.276Z,4.75
2023-06-17T03:20:00.548Z,3.95
2023-06-17T03:20:32.781Z,4.60
2023-06-17T03:21:04.566Z,4.40
2023-06-17T03:21:41.932Z,3.70
2023-06-17T03:22:14.424Z,4.53
2023-06-17T03:22:52.302Z,4.85
2023-06-17T03:23:24.365Z,4.40
2023-06-17T03:23:59.756Z,4.35
2023-06-17T03:24:32.020Z,4.22
2023-06-17T03:25:04.927Z,4.32
2023-06-17T03:25:37.746Z,4.30
2023-06-17T03:26:12.915Z,4.10
2023-06-17T03:26:46.049Z,4.63
2023-06-17T03:27:17.967Z,4.45
2023-06-17T03:27:49.966Z,4.80
2023-06-17T03:28:21.879Z,4.15
2023-06-17T03:28:55.023Z,4.38
2023-06-17T03:29:27.111Z,4.00
2023-06-17T03:29:59.927Z,4.30
2023-06-17T03:30:31.876Z,4.03
2023-06-17T03:31:04.383Z,4.28
2023-06-17T03:31:36.694Z,4.68
2023-06-17T03:32:08.593Z,4.57
2023-06-17T03:32:40.742Z,4.70
2023-06-17T03:33:14.594Z,4.50
2023-06-17T03:33:52.551Z,4.70
2023-06-17T03:34:25.586Z,4.78
2023-06-17T03:34:58.156Z,4.10
2023-06-17T03:35:30.026Z,4.20
2023-06-17T03:36:02.349Z,4.00
2023-06-17T03:36:34.921Z,3.97
2023-06-17T03:37:06.973Z,4.25
2023-06-17T03:37:38.721Z,4.53
2023-06-17T03:38:10.799Z,4.95
2023-06-17T03:38:43.053Z,4.13
2023-06-17T03:39:14.910Z,4.50
2023-06-17T03:39:46.862Z,4.53
2023-06-17T03:40:19.159Z,4.13
2023-06-17T03:40:52.464Z,4.55
2023-06-17T03:41:24.926Z,4.70
2023-06-17T03:41:58.205Z,4.75
2023-06-17T03:42:31.611Z,4.63
2023-06-17T03:43:03.766Z,4.43
2023-06-17T03:43:35.592Z,4.60
2023-06-17T03:44:07.597Z,4.50
2023-06-17T03:44:39.526Z,3.92
2023-06-17T03:45:11.674Z,4.38
2023-06-17T03:45:44.708Z,4.65
2023-06-17T03:46:17.710Z,4.78
2023-06-17T03:46:49.629Z,4.45
2023-06-17T03:47:21.373Z,4.10
2023-06-17T03:47:54.026Z,4.60
2023-06-17T03:48:26.104Z,5.05
2023-06-17T03:48:58.665Z,4.15
2023-06-17T03:49:30.536Z,4.80
2023-06-17T03:50:02.401Z,4.10
2023-06-17T03:50:36.025Z,4.57
2023-06-17T03:51:08.511Z,4.60
2023-06-17T03:51:41.280Z,5.20
2023-06-17T03:52:13.286Z,4.95
2023-06-17T03:52:45.172Z,4.60
2023-06-17T03:53:17.670Z,4.63
2023-06-17T03:53:49.948Z,4.65
2023-06-17T03:54:21.728Z,4.70
2023-06-17T03:54:55.150Z,4.70
2023-06-17T03:55:27.661Z,4.85
2023-06-17T03:56:01.486Z,4.65
2023-06-17T03:56:33.598Z,4.65
2023-06-17T03:57:05.970Z,4.65
2023-06-17T03:57:38.337Z,4.90
2023-06-17T03:58:15.798Z,4.43
2023-06-17T03:58:48.248Z,4.97
2023-06-17T03:59:20.064Z,4.70
2023-06-17T03:59:53.793Z,4.75
2023-06-17T04:00:25.589Z,5.28
2023-06-17T04:00:57.547Z,5.13
2023-06-17T04:01:29.505Z,5.32
2023-06-17T04:02:01.702Z,4.75
2023-06-17T04:02:33.845Z,4.63
2023-06-17T04:03:05.867Z,4.47
2023-06-17T04:03:39.139Z,4.50
2023-06-17T04:04:11.176Z,4.70
2023-06-17T04:04:44.004Z,4.47
2023-06-17T04:05:16.699Z,4.78
2023-06-17T04:05:50.324Z,4.18
2023-06-17T04:06:22.394Z,4.40
2023-06-17T04:06:54.197Z,4.50
2023-06-17T04:07:26.097Z,4.78
2023-06-17T04:07:59.981Z,5.22
2023-06-17T04:08:34.052Z,4.60
2023-06-17T04:09:06.488Z,4.38
2023-06-17T04:09:42.336Z,4.63
2023-06-17T04:10:19.970Z,4.55
2023-06-17T04:10:51.772Z,4.38
2023-06-17T04:11:23.542Z,4.10
2023-06-17T04:11:55.408Z,5.05
2023-06-17T04:12:27.195Z,4.80
2023-06-17T04:12:59.248Z,4.75
2023-06-17T04:13:32.053Z,4.40
2023-06-17T04:14:04.021Z,5.38
2023-06-17T04:14:35.831Z,5.07
2023-06-17T04:15:08.909Z,4.90
2023-06-17T04:15:41.851Z,4.57
2023-06-17T04:16:16.365Z,5.88
2023-06-17T04:16:50.320Z,4.57
2023-06-17T04:17:22.104Z,4.63
2023-06-17T04:17:57.202Z,4.40
2023-06-17T04:18:30.451Z,4.40
2023-06-17T04:19:02.990Z,5.05
2023-06-17T04:19:38.867Z,4.75
2023-06-17T04:20:14.184Z,5.00
2023-06-17T04:20:46.080Z,4.43
2023-06-17T04:21:18.009Z,4.97
2023-06-17T04:21:50.955Z,4.43
2023-06-17T04:22:23.777Z,5.25
2023-06-17T04:22:55.797Z,5.38
2023-06-17T04:23:28.333Z,4.80
2023-06-17T04:24:01.061Z,4.30
2023-06-17T04:24:33.515Z,5.15
2023-06-17T04:25:06.856Z,5.03
2023-06-17T04:25:39.852Z,5.18
2023-06-17T04:26:14.341Z,5.75
2023-06-17T04:26:47.065Z,4.70
2023-06-17T04:27:20.590Z,4.57
2023-06-17T04:27:54.939Z,4.75
2023-06-17T04:28:32.967Z,4.97
2023-06-17T04:29:05.686Z,4.78
2023-06-17T04:29:38.534Z,5.35
2023-06-17T04:30:10.976Z,4.93
2023-06-17T04:30:48.818Z,5.13
2023-06-17T04:31:20.696Z,5.50
2023-06-17T04:31:53.755Z,5.32
2023-06-17T04:32:27.663Z,5.10
2023-06-17T04:33:01.545Z,5.05
2023-06-17T04:33:38.985Z,4.85
2023-06-17T04:34:22.325Z,4.80
2023-06-17T04:34:55.528Z,5.35
2023-06-17T04:35:28.351Z,5.47
2023-06-17T04:36:09.634Z,5.47
2023-06-17T04:36:44.677Z,5.28
2023-06-17T04:37:17.746Z,5.10
2023-06-17T04:37:54.824Z,4.78
2023-06-17T04:38:27.305Z,5.03
2023-06-17T04:38:59.827Z,5.07
2023-06-17T04:39:35.794Z,4.97
2023-06-17T04:40:13.388Z,6.05
2023-06-17T04:40:48.051Z,5.40
2023-06-17T04:41:20.218Z,5.43
2023-06-17T04:41:53.512Z,5.10
2023-06-17T04:42:26.132Z,5.07
2023-06-17T04:42:58.538Z,5.03
2023-06-17T04:43:31.450Z,5.25
2023-06-17T04:44:04.390Z,5.60
2023-06-17T04:44:38.593Z,5.28
2023-06-17T04:45:10.742Z,5.32
2023-06-17T04:45:42.938Z,5.10
2023-06-17T04:46:19.482Z,5.85
2023-06-17T04:46:52.223Z,5.70
2023-06-17T04:47:24.541Z,5.05
2023-06-17T04:47:56.823Z,5.05
2023-06-17T04:48:30.192Z,5.53
2023-06-17T04:49:01.984Z,5.30
2023-06-17T04:49:39.912Z,5.32
2023-06-17T04:50:13.948Z,5.55
2023-06-17T04:50:45.747Z,4.95
2023-06-17T04:51:19.227Z,5.22
2023-06-17T04:51:53.649Z,5.18
2023-06-17T04:52:26.526Z,6.45
2023-06-17T04:53:05.028Z,5.65
2023-06-17T04:53:40.111Z,5.30
2023-06-17T04:54:12.321Z,5.15
2023-06-17T04:54:45.436Z,5.32
2023-06-17T04:55:19.601Z,4.85
2023-06-17T04:55:52.057Z,5.60
2023-06-17T04:56:27.905Z,5.80
2023-06-17T04:57:00.440Z,4.65
2023-06-17T04:57:32.240Z,5.00
2023-06-17T04:58:05.588Z,5.30
2023-06-17T04:58:44.250Z,5.65
2023-06-17T04:59:21.237Z,5.40
2023-06-17T04:59:53.093Z,5.72
2023-06-17T05:00:26.446Z,5.40
2023-06-17T05:00:58.426Z,4.90
2023-06-17T05:01:32.634Z,5.88
2023-06-17T05:02:04.885Z,5.43
2023-06-17T05:02:40.165Z,4.65
2023-06-17T05:03:12.318Z,4.72
2023-06-17T05:03:44.320Z,5.38
2023-06-17T05:04:17.631Z,5.03
2023-06-17T05:04:49.448Z,5.43
2023-06-17T05:05:21.580Z,5.15
2023-06-17T05:05:54.616Z,5.03
2023-06-17T05:06:27.890Z,4.72
2023-06-17T05:06:59.934Z,4.90
2023-06-17T05:07:31.909Z,6.10
2023-06-17T05:08:03.925Z,5.13
2023-06-17T05:08:36.183Z,5.30
2023-06-17T05:09:08.608Z,5.35
2023-06-17T05:09:42.590Z,5.43
2023-06-17T05:10:16.024Z,5.28
2023-06-17T05:10:48.223Z,5.75
2023-06-17T05:11:20.049Z,4.95
2023-06-17T05:11:52.158Z,5.00
2023-06-17T05:12:23.953Z,5.45
2023-06-17T05:12:55.782Z,5.63
2023-06-17T05:13:32.551Z,5.20
2023-06-17T05:14:05.910Z,5.40
2023-06-17T05:14:37.707Z,6.05
2023-06-17T05:15:10.532Z,5.70
2023-06-17T05:15:42.336Z,5.68
2023-06-17T05:16:15.318Z,5.20
2023-06-17T05:16:47.567Z,5.45
2023-06-17T05:17:19.559Z,5.20
2023-06-17T05:17:51.507Z,4.78
2023-06-17T05:18:23.589Z,5.03
2023-06-17T05:18:57.305Z,5.45
2023-06-17T05:19:29.142Z,4.72
2023-06-17T05:20:01.738Z,5.50
2023-06-17T05:20:35.734Z,5.13
2023-06-17T05:21:07.571Z,5.30
2023-06-17T05:21:39.338Z,5.10
2023-06-17T05:22:11.149Z,5.13
2023-06-17T05:22:43.008Z,5.43
2023-06-17T05:23:14.902Z,4.88
2023-06-17T05:23:46.760Z,5.05
2023-06-17T05:24:18.601Z,5.45
2023-06-17T05:24:52.794Z,5.13
2023-06-17T05:25:24.795Z,4.82
2023-06-17T05:25:56.577Z,6.55
2023-06-17T05:26:28.638Z,5.57
2023-06-17T05:27:00.973Z,5.55
2023-06-17T05:27:33.644Z,5.70
2023-06-17T05:28:11.679Z,4.90
2023-06-17T05:28:44.391Z,5.07
2023-06-17T05:29:16.271Z,6.22
2023-06-17T05:29:49.555Z,5.35
2023-06-17T05:30:21.561Z,5.95
2023-06-17T05:30:56.639Z,6.00
2023-06-17T05:31:28.628Z,6.30
2023-06-17T05:32:00.672Z,5.90
2023-06-17T05:32:32.762Z,5.22
2023-06-17T05:33:05.896Z,6.05
2023-06-17T05:33:37.985Z,5.15
2023-06-17T05:34:09.916Z,5.70
2023-06-17T05:34:41.744Z,5.43
2023-06-17T05:35:13.626Z,5.95
2023-06-17T05:35:45.876Z,5.90
2023-06-17T05:36:17.927Z,5.45
2023-06-17T05:36:49.769Z,5.63
2023-06-17T05:37:21.561Z,5.93
2023-06-17T05:37:53.396Z,5.20
2023-06-17T05:38:25.313Z,5.68
2023-06-17T05:38:58.185Z,5.68
2023-06-17T05:39:30.168Z,5.50
2023-06-17T05:40:02.185Z,5.60
2023-06-17T05:40:34.654Z,5.13
2023-06-17T05:41:06.977Z,5.90
2023-06-17T05:41:39.254Z,5.82
2023-06-17T05:42:13.309Z,5.57
2023-06-17T05:42:46.321Z,5.80
2023-06-17T05:43:18.243Z,5.82
2023-06-17T05:43:50.191Z,5.30
2023-06-17T05:44:22.188Z,5.90
2023-06-17T05:44:55.691Z,4.78
2023-06-17T05:45:27.862Z,6.35
2023-06-17T05:45:59.738Z,6.65
2023-06-17T05:46:31.658Z,6.00
2023-06-17T05:47:03.821Z,5.78
2023-06-17T05:47:35.856Z,5.43
2023-06-17T05:48:07.755Z,5.25
2023-06-17T05:48:39.665Z,5.25
2023-06-17T05:49:11.484Z,5.75
2023-06-17T05:49:44.299Z,5.28
2023-06-17T05:50:16.214Z,4.82
2023-06-17T05:50:48.441Z,5.10
2023-06-17T05:51:20.265Z,6.07
2023-06-17T05:51:52.787Z,5.85
2023-06-17T05:52:25.416Z,5.38
2023-06-17T05:52:57.568Z,5.03
2023-06-17T05:53:29.522Z,5.47
2023-06-17T05:54:01.543Z,5.30
2023-06-17T05:54:33.800Z,5.30
2023-06-17T05:55:06.172Z,5.40
2023-06-17T05:55:38.153Z,5.70
2023-06-17T05:56:10.675Z,5.75
2023-06-17T05:56:42.767Z,5.75
2023-06-17T05:57:14.888Z,5.30
2023-06-17T05:57:47.038Z,5.78
2023-06-17T05:58:20.077Z,5.70
2023-06-17T05:58:58.201Z,6.00
2023-06-17T05:59:42.672Z,5.47
2023-06-17T06:00:14.699Z,5.22
2023-06-17T06:00:47.857Z,5.82
2023-06-17T06:01:20.047Z,5.28
2023-06-17T06:01:52.986Z,5.70
2023-06-17T06:02:24.901Z,5.55
2023-06-17T06:02:56.781Z,5.85
2023-06-17T06:03:28.790Z,5.63
2023-06-17T06:04:01.017Z,5.25
2023-06-17T06:04:32.880Z,5.70
2023-06-17T06:05:05.368Z,5.53
2023-06-17T06:05:37.396Z,5.68
2023-06-17T06:06:09.215Z,5.38
2023-06-17T06:06:41.035Z,5.43
2023-06-17T06:07:13.008Z,4.65
2023-06-17T06:07:45.051Z,4.78
2023-06-17T06:08:16.886Z,6.05
2023-06-17T06:08:48.680Z,5.65
2023-06-17T06:09:20.543Z,5.25
2023-06-17T06:09:53.005Z,5.47
2023-06-17T06:10:28.074Z,5.55
2023-06-17T06:11:02.556Z,5.18
2023-06-17T06:11:35.621Z,4.78
2023-06-17T06:12:07.645Z,4.85
2023-06-17T06:12:40.856Z,5.50
2023-06-17T06:13:12.775Z,4.88
2023-06-17T06:13:45.275Z,5.35
2023-06-17T06:14:19.310Z,5.22
2023-06-17T06:14:54.821Z,5.43
2023-06-17T06:15:26.912Z,5.55
2023-06-17T06:15:59.017Z,5.15
2023-06-17T06:16:31.587Z,5.10
2023-06-17T06:17:03.517Z,5.50
2023-06-17T06:17:36.437Z,5.38
2023-06-17T06:18:08.468Z,5.05
2023-06-17T06:18:40.649Z,5.20
2023-06-17T06:19:12.439Z,5.00
2023-06-17T06:19:44.381Z,5.43
2023-06-17T06:20:16.897Z,5.55
2023-06-17T06:20:48.790Z,5.13
2023-06-17T06:21:20.696Z,5.55
2023-06-17T06:21:52.525Z,5.20
2023-06-17T06:22:24.532Z,5.55
2023-06-17T06:22:58.835Z,5.75
2023-06-17T06:23:32.032Z,5.32
2023-06-17T06:24:06.590Z,5.28
2023-06-17T06:24:44.809Z,5.55
2023-06-17T06:25:16.776Z,5.75
2023-06-17T06:25:48.712Z,5.85
2023-06-17T06:26:21.607Z,5.88
2023-06-17T06:26:53.780Z,5.55
2023-06-17T06:27:27.317Z,5.60
2023-06-17T06:27:59.828Z,5.85
2023-06-17T06:28:33.607Z,6.00
2023-06-17T06:29:05.514Z,4.80
2023-06-17T06:29:38.516Z,5.90
2023-06-17T06:30:10.891Z,6.20
2023-06-17T06:30:48.210Z,6.13
2023-06-17T06:31:20.976Z,6.10
2023-06-17T06:31:52.792Z,5.15
2023-06-17T06:32:25.105Z,5.63
2023-06-17T06:32:58.807Z,5.43
2023-06-17T06:33:31.185Z,5.70
2023-06-17T06:34:03.145Z,6.30
2023-06-17T06:34:34.998Z,4.80
2023-06-17T06:35:09.868Z,5.00
2023-06-17T06:35:43.376Z,5.38
2023-06-17T06:36:19.995Z,5.70
2023-06-17T06:36:52.576Z,5.85
2023-06-17T06:37:24.973Z,6.78
2023-06-17T06:37:56.824Z,5.72
2023-06-17T06:38:29.041Z,5.40
2023-06-17T06:39:00.919Z,5.95
2023-06-17T06:39:32.787Z,5.00
2023-06-17T06:40:06.508Z,5.57
2023-06-17T06:40:41.655Z,5.80
2023-06-17T06:41:14.372Z,5.45
2023-06-17T06:41:54.529Z,6.00
2023-06-17T06:42:48.960Z,5.38
2023-06-17T06:43:25.838Z,5.38
2023-06-17T06:44:00.488Z,5.53
2023-06-17T06:44:32.444Z,5.60
2023-06-17T06:45:04.752Z,5.38
2023-06-17T06:45:36.907Z,5.30
2023-06-17T06:46:12.869Z,4.88
2023-06-17T06:46:46.535Z,4.72
2023-06-17T06:47:19.222Z,5.43
2023-06-17T06:47:51.701Z,5.53
2023-06-17T06:48:23.946Z,6.45
2023-06-17T06:48:59.989Z,5.32
2023-06-17T06:49:35.640Z,5.20
2023-06-17T06:50:07.971Z,5.20
2023-06-17T06:50:40.005Z,4.78
2023-06-17T06:51:14.190Z,6.10
2023-06-17T06:51:46.215Z,5.60
2023-06-17T06:52:18.081Z,5.80
2023-06-17T06:52:50.542Z,5.50
2023-06-17T06:53:25.057Z,5.80
2023-06-17T06:53:59.341Z,4.97
2023-06-17T06:54:31.328Z,5.75
2023-06-17T06:55:03.272Z,6.10
2023-06-17T06:55:36.172Z,5.72
2023-06-17T06:56:07.983Z,5.72
2023-06-17T06:56:42.862Z,5.93
2023-06-17T06:57:14.745Z,5.15
2023-06-17T06:57:49.810Z,5.70
2023-06-17T06:58:21.777Z,4.95
2023-06-17T06:58:54.018Z,5.25
2023-06-17T06:59:27.012Z,5.78
2023-06-17T06:59:59.975Z,5.32
2023-06-17T07:00:31.884Z,5.00
2023-06-17T07:01:04.670Z,5.18
2023-06-17T07:01:37.238Z,4.88
2023-06-17T07:02:09.196Z,5.78
2023-06-17T07:02:41.092Z,5.72
2023-06-17T07:03:13.413Z,5.25
2023-06-17T07:03:45.330Z,5.30
2023-06-17T07:04:17.741Z,5.25
2023-06-17T07:04:50.135Z,5.70
2023-06-17T07:05:27.516Z,6.50
2023-06-17T07:06:06.994Z,4.82
2023-06-17T07:06:40.890Z,5.85
2023-06-17T07:07:17.243Z,5.00
2023-06-17T07:07:52.305Z,5.90
2023-06-17T07:08:27.576Z,6.03
2023-06-17T07:08:59.769Z,5.28
2023-06-17T07:09:31.623Z,5.53
2023-06-17T07:10:03.570Z,5.57
2023-06-17T07:10:42.009Z,5.10
2023-06-17T07:11:14.561Z,5.05
2023-06-17T07:11:46.464Z,4.47
2023-06-17T07:12:18.694Z,5.78
2023-06-17T07:12:51.185Z,5.35
2023-06-17T07:13:25.907Z,5.30
2023-06-17T07:13:58.487Z,4.80
2023-06-17T07:14:30.397Z,6.45
2023-06-17T07:15:02.303Z,6.05
2023-06-17T07:15:34.690Z,5.30
2023-06-17T07:16:10.356Z,5.00
2023-06-17T07:16:42.276Z,4.85
2023-06-17T07:17:15.068Z,5.25
2023-06-17T07:17:50.916Z,5.15
2023-06-17T07:18:23.362Z,5.47
2023-06-17T07:18:55.364Z,4.95
2023-06-17T07:19:27.913Z,5.00
2023-06-17T07:20:01.680Z,5.03
2023-06-17T07:20:34.407Z,5.53
2023-06-17T07:21:07.447Z,5.55
2023-06-17T07:21:39.674Z,4.95
2023-06-17T07:22:12.018Z,4.90
2023-06-17T07:22:43.953Z,5.47
2023-06-17T07:23:18.274Z,5.25